createdAt,value
2022-11-14T00:00:53.678Z,75.81
2022-11-14T00:01:53.776Z,75.81
2022-11-14T00:02:53.904Z,75.91
2022-11-14T00:03:53.931Z,75.81
2022-11-14T00:04:54.007Z,75.91
2022-11-14T00:05:54.074Z,75.91
2022-11-14T00:06:54.255Z,75.81
2022-11-14T00:07:54.272Z,75.81
2022-11-14T00:08:54.299Z,75.81
2022-11-14T00:09:54.417Z,75.81
2022-11-14T00:10:54.451Z,75.81
2022-11-14T00:11:54.526Z,75.81
2022-11-14T00:12:54.665Z,75.81
2022-11-14T00:13:54.654Z,75.70
2022-11-14T00:14:54.749Z,75.60
2022-11-14T00:15:54.817Z,75.70
2022-11-14T00:16:54.882Z,75.70
2022-11-14T00:17:55.000Z,75.70
2022-11-14T00:18:55.073Z,75.81
2022-11-14T00:19:55.144Z,75.81
2022-11-14T00:20:55.211Z,75.81
2022-11-14T00:21:55.316Z,75.91
2022-11-14T00:22:55.393Z,75.91
2022-11-14T00:23:55.477Z,75.91
2022-11-14T00:24:55.591Z,75.81
2022-11-14T00:25:55.643Z,75.70
2022-11-14T00:26:55.713Z,75.70
2022-11-14T00:27:55.796Z,75.70
2022-11-14T00:28:55.884Z,75.70
2022-11-14T00:29:55.958Z,75.70
2022-11-14T00:30:56.046Z,75.70
2022-11-14T00:31:56.142Z,75.70
2022-11-14T00:32:56.230Z,75.70
2022-11-14T00:33:56.302Z,75.81
2022-11-14T00:34:56.377Z,75.91
2022-11-14T00:35:56.450Z,75.91
2022-11-14T00:36:56.513Z,75.91
2022-11-14T00:37:56.651Z,76.01
2022-11-14T00:38:56.721Z,76.01
2022-11-14T00:39:56.799Z,76.12
2022-11-14T00:40:56.860Z,76.12
2022-11-14T00:41:56.928Z,76.12
2022-11-14T00:42:57.002Z,76.12
2022-11-14T00:43:57.084Z,76.12
2022-11-14T00:44:57.157Z,76.12
2022-11-14T00:45:57.228Z,76.12
2022-11-14T00:46:57.296Z,76.12
2022-11-14T00:47:57.392Z,76.12
2022-11-14T00:48:57.460Z,76.12
2022-11-14T00:49:57.522Z,76.01
2022-11-14T00:50:57.584Z,75.81
2022-11-14T00:51:57.706Z,75.60
2022-11-14T00:52:57.792Z,75.39
2022-11-14T00:53:57.869Z,75.29
2022-11-14T00:54:57.929Z,75.29
2022-11-14T00:55:58.045Z,75.43
2022-11-14T00:56:58.116Z,75.53
2022-11-14T00:57:58.274Z,75.53
2022-11-14T00:58:58.347Z,75.63
2022-11-14T00:59:58.423Z,75.74
2022-11-14T01:00:58.566Z,75.84
2022-11-14T01:01:58.583Z,75.95
2022-11-14T01:02:58.666Z,76.04
2022-11-14T01:03:58.738Z,76.04
2022-11-14T01:04:58.810Z,76.15
2022-11-14T01:05:58.875Z,76.15
2022-11-14T01:06:58.969Z,76.15
2022-11-14T01:07:59.060Z,76.25
2022-11-14T01:08:59.248Z,76.25
2022-11-14T01:09:59.235Z,76.32
2022-11-14T01:10:59.285Z,76.42
2022-11-14T01:11:59.404Z,76.42
2022-11-14T01:12:59.482Z,76.42
2022-11-14T01:13:59.588Z,76.53
2022-11-14T01:14:59.679Z,76.53
2022-11-14T01:15:59.767Z,76.53
2022-11-14T01:16:59.878Z,76.53
2022-11-14T01:17:59.992Z,76.42
2022-11-14T01:19:00.010Z,76.32
2022-11-14T01:20:00.107Z,76.12
2022-11-14T01:21:00.209Z,76.12
2022-11-14T01:22:04.830Z,76.12
2022-11-14T01:23:00.405Z,76.12
2022-11-14T01:24:00.431Z,76.12
2022-11-14T01:25:00.497Z,76.01
2022-11-14T01:26:00.578Z,75.91
2022-11-14T01:27:00.665Z,75.81
2022-11-14T01:28:00.788Z,75.84
2022-11-14T01:29:00.865Z,75.84
2022-11-14T01:30:00.934Z,75.84
2022-11-14T01:31:01.002Z,75.74
2022-11-14T01:32:01.120Z,75.84
2022-11-14T01:33:01.177Z,75.84
2022-11-14T01:34:01.254Z,75.95
2022-11-14T01:35:01.318Z,75.95
2022-11-14T01:36:01.390Z,75.95
2022-11-14T01:37:01.448Z,75.95
2022-11-14T01:38:01.535Z,75.84
2022-11-14T01:39:01.609Z,75.84
2022-11-14T01:40:01.673Z,75.84
2022-11-14T01:41:01.755Z,75.74
2022-11-14T01:42:01.835Z,75.74
2022-11-14T01:43:01.924Z,75.84
2022-11-14T01:44:02.003Z,75.84
2022-11-14T01:45:02.077Z,75.95
2022-11-14T01:46:02.171Z,75.95
2022-11-14T01:47:02.247Z,75.95
2022-11-14T01:48:02.343Z,76.04
2022-11-14T01:49:02.409Z,76.04
2022-11-14T01:50:02.492Z,76.04
2022-11-14T01:51:02.605Z,76.04
2022-11-14T01:52:02.670Z,76.15
2022-11-14T01:53:02.749Z,76.15
2022-11-14T01:54:02.829Z,76.25
2022-11-14T01:55:02.926Z,76.15
2022-11-14T01:56:03.010Z,76.15
2022-11-14T01:57:03.082Z,76.04
2022-11-14T01:58:03.163Z,75.95
2022-11-14T01:59:03.240Z,75.95
2022-11-14T02:00:03.322Z,76.04
2022-11-14T02:01:03.401Z,76.15
2022-11-14T02:02:03.461Z,76.15
2022-11-14T02:03:03.548Z,76.25
2022-11-14T02:04:06.505Z,76.35
2022-11-14T02:05:03.722Z,76.35
2022-11-14T02:06:03.789Z,76.35
2022-11-14T02:07:03.985Z,76.46
2022-11-14T02:08:04.002Z,76.46
2022-11-14T02:09:04.029Z,76.46
2022-11-14T02:10:04.100Z,76.56
2022-11-14T02:11:04.152Z,76.56
2022-11-14T02:12:04.253Z,76.63
2022-11-14T02:13:04.343Z,76.63
2022-11-14T02:14:04.414Z,76.63
2022-11-14T02:15:04.496Z,76.63
2022-11-14T02:16:04.551Z,76.53
2022-11-14T02:17:28.549Z,76.53
2022-11-14T02:18:04.733Z,76.53
2022-11-14T02:19:04.743Z,76.53
2022-11-14T02:20:05.699Z,76.53
2022-11-14T02:21:04.888Z,76.53
2022-11-14T02:22:04.958Z,76.32
2022-11-14T02:23:05.085Z,76.21
2022-11-14T02:24:05.107Z,76.21
2022-11-14T02:25:05.172Z,76.21
2022-11-14T02:26:05.241Z,76.32
2022-11-14T02:27:05.314Z,76.32
2022-11-14T02:28:05.391Z,76.35
2022-11-14T02:29:05.467Z,76.21
2022-11-14T02:30:05.548Z,76.21
2022-11-14T02:31:05.631Z,76.35
2022-11-14T02:32:10.522Z,76.35
2022-11-14T02:33:12.955Z,76.35
2022-11-14T02:34:05.892Z,76.35
2022-11-14T02:35:05.957Z,76.35
2022-11-14T02:36:06.024Z,76.25
2022-11-14T02:37:06.132Z,76.15
2022-11-14T02:38:06.217Z,76.25
2022-11-14T02:39:06.288Z,76.25
2022-11-14T02:40:06.347Z,76.35
2022-11-14T02:41:06.418Z,76.35
2022-11-14T02:42:06.520Z,76.46
2022-11-14T02:43:06.598Z,76.46
2022-11-14T02:44:06.681Z,76.46
2022-11-14T02:45:06.774Z,76.35
2022-11-14T02:46:06.852Z,76.35
2022-11-14T02:47:06.923Z,76.35
2022-11-14T02:48:07.060Z,76.35
2022-11-14T02:49:07.066Z,76.35
2022-11-14T02:50:07.138Z,76.35
2022-11-14T02:51:07.206Z,76.35
2022-11-14T02:52:07.267Z,76.35
2022-11-14T02:53:07.409Z,76.46
2022-11-14T02:54:07.436Z,76.46
2022-11-14T02:55:07.517Z,76.56
2022-11-14T02:56:07.567Z,76.56
2022-11-14T02:57:07.682Z,76.56
2022-11-14T02:58:07.764Z,76.56
2022-11-14T02:59:07.840Z,76.56
2022-11-14T03:00:14.358Z,76.56
2022-11-14T03:01:20.309Z,76.67
2022-11-14T03:02:08.105Z,76.67
2022-11-14T03:03:08.171Z,76.77
2022-11-14T03:04:08.256Z,76.77
2022-11-14T03:05:08.316Z,76.87
2022-11-14T03:06:08.439Z,76.87
2022-11-14T03:07:08.541Z,76.98
2022-11-14T03:08:08.610Z,76.98
2022-11-14T03:09:08.646Z,76.98
2022-11-14T03:10:08.715Z,76.98
2022-11-14T03:11:08.833Z,76.98
2022-11-14T03:12:08.901Z,77.08
2022-11-14T03:13:08.986Z,77.08
2022-11-14T03:14:09.058Z,77.08
2022-11-14T03:15:09.128Z,77.08
2022-11-14T03:16:09.208Z,77.08
2022-11-14T03:17:09.268Z,77.18
2022-11-14T03:18:09.380Z,77.28
2022-11-14T03:19:09.472Z,77.28
2022-11-14T03:20:09.534Z,77.39
2022-11-14T03:21:09.604Z,77.28
2022-11-14T03:22:09.673Z,77.28
2022-11-14T03:23:09.771Z,77.28
2022-11-14T03:24:09.844Z,77.39
2022-11-14T03:25:09.929Z,77.39
2022-11-14T03:26:10.020Z,77.59
2022-11-14T03:27:10.134Z,77.59
2022-11-14T03:28:10.196Z,77.70
2022-11-14T03:29:10.270Z,77.70
2022-11-14T03:30:10.339Z,77.80
2022-11-14T03:31:10.429Z,77.80
2022-11-14T03:32:10.478Z,77.80
2022-11-14T03:33:10.581Z,77.91
2022-11-14T03:34:10.636Z,77.91
2022-11-14T03:35:10.714Z,77.91
2022-11-14T03:36:10.776Z,77.91
2022-11-14T03:37:10.870Z,78.01
2022-11-14T03:38:10.983Z,78.01
2022-11-14T03:39:11.012Z,78.01
2022-11-14T03:40:11.076Z,78.01
2022-11-14T03:41:11.146Z,78.01
2022-11-14T03:42:11.245Z,78.01
2022-11-14T03:43:11.346Z,78.08
2022-11-14T03:44:11.397Z,78.08
2022-11-14T03:45:11.467Z,78.11
2022-11-14T03:46:11.567Z,78.11
2022-11-14T03:47:11.648Z,78.01
2022-11-14T03:48:11.743Z,77.97
2022-11-14T03:49:11.821Z,77.97
2022-11-14T03:50:11.928Z,77.97
2022-11-14T03:51:12.033Z,78.08
2022-11-14T03:52:12.098Z,78.08
2022-11-14T03:53:12.210Z,78.08
2022-11-14T03:54:12.281Z,78.08
2022-11-14T03:55:12.387Z,78.08
2022-11-14T03:56:12.446Z,78.08
2022-11-14T03:57:12.581Z,78.08
2022-11-14T03:58:12.676Z,78.18
2022-11-14T03:59:12.743Z,78.18
2022-11-14T04:00:12.835Z,78.18
2022-11-14T04:01:13.010Z,78.18
2022-11-14T04:02:12.998Z,78.08
2022-11-14T04:03:13.076Z,77.97
2022-11-14T04:04:13.153Z,77.97
2022-11-14T04:05:13.253Z,77.97
2022-11-14T04:06:13.277Z,77.97
2022-11-14T04:07:13.449Z,77.97
2022-11-14T04:08:13.471Z,78.08
2022-11-14T04:09:13.508Z,78.08
2022-11-14T04:10:13.596Z,78.08
2022-11-14T04:11:13.691Z,78.08
2022-11-14T04:12:15.868Z,78.08
2022-11-14T04:13:13.871Z,78.08
2022-11-14T04:14:13.919Z,78.08
2022-11-14T04:15:13.998Z,78.08
2022-11-14T04:16:14.077Z,77.97
2022-11-14T04:17:14.153Z,77.97
2022-11-14T04:18:14.289Z,77.97
2022-11-14T04:19:14.320Z,78.08
2022-11-14T04:20:14.387Z,77.97
2022-11-14T04:21:14.476Z,77.97
2022-11-14T04:22:14.553Z,77.97
2022-11-14T04:23:14.647Z,77.97
2022-11-14T04:24:14.701Z,77.97
2022-11-14T04:25:14.770Z,77.87
2022-11-14T04:26:14.839Z,77.87
2022-11-14T04:27:14.899Z,77.87
2022-11-14T04:28:15.009Z,77.87
2022-11-14T04:29:15.033Z,77.97
2022-11-14T04:30:15.150Z,77.87
2022-11-14T04:31:15.203Z,77.87
2022-11-14T04:32:15.276Z,77.76
2022-11-14T04:33:15.424Z,77.76
2022-11-14T04:34:15.436Z,77.76
2022-11-14T04:35:15.514Z,77.76
2022-11-14T04:36:15.583Z,77.76
2022-11-14T04:37:15.676Z,77.76
2022-11-14T04:38:15.755Z,77.76
2022-11-14T04:39:15.839Z,77.66
2022-11-14T04:40:15.917Z,77.56
2022-11-14T04:41:15.996Z,77.45
2022-11-14T04:42:16.074Z,77.45
2022-11-14T04:43:16.161Z,77.35
2022-11-14T04:44:16.240Z,77.35
2022-11-14T04:45:16.496Z,77.25
2022-11-14T04:46:16.407Z,77.25
2022-11-14T04:47:16.477Z,77.25
2022-11-14T04:48:16.593Z,77.25
2022-11-14T04:49:16.687Z,77.35
2022-11-14T04:50:16.753Z,77.45
2022-11-14T04:51:16.819Z,77.45
2022-11-14T04:52:16.943Z,77.56
2022-11-14T04:53:17.014Z,77.56
2022-11-14T04:54:17.036Z,77.56
2022-11-14T04:55:17.142Z,77.56
2022-11-14T04:56:17.186Z,77.45
2022-11-14T04:57:17.248Z,77.45
2022-11-14T04:58:17.335Z,77.45
2022-11-14T04:59:20.813Z,77.45
2022-11-14T05:00:17.461Z,77.56
2022-11-14T05:01:17.593Z,77.56
2022-11-14T05:02:17.661Z,77.56
2022-11-14T05:03:17.780Z,77.56
2022-11-14T05:04:17.850Z,77.56
2022-11-14T05:05:17.986Z,77.45
2022-11-14T05:06:18.015Z,77.35
2022-11-14T05:07:18.274Z,77.35
2022-11-14T05:08:18.251Z,77.35
2022-11-14T05:09:18.256Z,77.35
2022-11-14T05:10:18.377Z,77.35
2022-11-14T05:11:18.409Z,77.35
2022-11-14T05:12:18.497Z,77.45
2022-11-14T05:13:18.659Z,77.45
2022-11-14T05:14:18.709Z,77.45
2022-11-14T05:15:18.755Z,77.45
2022-11-14T05:16:18.885Z,77.45
2022-11-14T05:17:18.918Z,77.56
2022-11-14T05:18:19.008Z,77.56
2022-11-14T05:19:19.075Z,77.56
2022-11-14T05:20:19.135Z,77.56
2022-11-14T05:21:19.252Z,77.66
2022-11-14T05:22:19.342Z,77.66
2022-11-14T05:23:19.440Z,77.56
2022-11-14T05:24:19.507Z,77.56
2022-11-14T05:25:19.623Z,77.56
2022-11-14T05:26:19.657Z,77.56
2022-11-14T05:27:19.764Z,77.56
2022-11-14T05:28:19.864Z,77.52
2022-11-14T05:29:19.931Z,77.56
2022-11-14T05:30:20.003Z,77.56
2022-11-14T05:31:20.070Z,77.56
2022-11-14T05:32:20.146Z,77.56
2022-11-14T05:33:20.258Z,77.52
2022-11-14T05:34:20.289Z,77.56
2022-11-14T05:35:20.409Z,77.52
2022-11-14T05:36:20.513Z,77.52
2022-11-14T05:37:20.617Z,77.42
2022-11-14T05:38:20.661Z,77.31
2022-11-14T05:39:20.734Z,77.35
2022-11-14T05:40:20.826Z,77.25
2022-11-14T05:41:20.922Z,77.15
2022-11-14T05:42:21.023Z,77.15
2022-11-14T05:43:21.120Z,77.15
2022-11-14T05:44:21.190Z,77.15
2022-11-14T05:45:21.346Z,77.25
2022-11-14T05:46:21.338Z,77.25
2022-11-14T05:47:21.412Z,77.35
2022-11-14T05:48:21.533Z,77.25
2022-11-14T05:49:22.194Z,77.25
2022-11-14T05:50:21.724Z,77.25
2022-11-14T05:51:21.758Z,77.25
2022-11-14T05:52:21.827Z,77.25
2022-11-14T05:53:21.918Z,77.25
2022-11-14T05:54:21.983Z,77.25
2022-11-14T05:55:25.065Z,77.25
2022-11-14T05:56:22.175Z,77.25
2022-11-14T05:57:22.251Z,77.25
2022-11-14T05:58:22.329Z,77.25
2022-11-14T05:59:22.416Z,77.25
2022-11-14T06:00:22.469Z,77.25
2022-11-14T06:01:22.540Z,77.25
2022-11-14T06:02:22.657Z,77.25
2022-11-14T06:03:22.694Z,77.25
2022-11-14T06:04:22.812Z,77.25
2022-11-14T06:05:22.826Z,77.25
2022-11-14T06:06:22.884Z,77.25
2022-11-14T06:07:23.015Z,77.25
2022-11-14T06:08:23.125Z,77.25
2022-11-14T06:09:23.156Z,77.25
2022-11-14T06:10:23.234Z,77.25
2022-11-14T06:11:23.313Z,77.25
2022-11-14T06:12:23.385Z,77.25
2022-11-14T06:13:23.500Z,77.25
2022-11-14T06:14:23.512Z,77.25
2022-11-14T06:15:23.581Z,77.25
2022-11-14T06:16:23.677Z,77.25
2022-11-14T06:17:23.797Z,77.15
2022-11-14T06:18:23.857Z,77.15
2022-11-14T06:19:23.919Z,77.15
2022-11-14T06:20:24.032Z,77.15
2022-11-14T06:21:24.104Z,77.04
2022-11-14T06:22:24.164Z,77.15
2022-11-14T06:23:25.026Z,77.15
2022-11-14T06:24:24.330Z,77.04
2022-11-14T06:25:24.413Z,77.11
2022-11-14T06:26:24.477Z,77.15
2022-11-14T06:27:24.545Z,77.04
2022-11-14T06:28:24.720Z,76.94
2022-11-14T06:29:24.756Z,76.94
2022-11-14T06:30:24.832Z,76.84
2022-11-14T06:31:24.866Z,76.84
2022-11-14T06:32:24.945Z,76.73
2022-11-14T06:33:25.040Z,76.73
2022-11-14T06:34:25.116Z,76.73
2022-11-14T06:35:25.203Z,76.73
2022-11-14T06:36:25.273Z,76.73
2022-11-14T06:37:25.352Z,76.73
2022-11-14T06:38:25.433Z,76.73
2022-11-14T06:39:25.504Z,76.73
2022-11-14T06:40:25.595Z,76.63
2022-11-14T06:41:25.659Z,76.53
2022-11-14T06:42:25.720Z,76.32
2022-11-14T06:43:25.832Z,76.21
2022-11-14T06:44:30.690Z,76.21
2022-11-14T06:45:25.972Z,76.21
2022-11-14T06:46:26.116Z,76.21
2022-11-14T06:47:26.162Z,76.12
2022-11-14T06:48:26.230Z,76.01
2022-11-14T06:49:26.247Z,76.12
2022-11-14T06:50:26.346Z,76.12
2022-11-14T06:51:26.411Z,76.21
2022-11-14T06:52:26.505Z,76.32
2022-11-14T06:53:26.578Z,76.32
2022-11-14T06:54:26.705Z,76.32
2022-11-14T06:55:26.760Z,76.32
2022-11-14T06:56:26.834Z,76.42
2022-11-14T06:57:26.886Z,76.32
2022-11-14T06:58:27.078Z,76.21
2022-11-14T06:59:27.027Z,76.21
2022-11-14T07:00:27.122Z,76.12
2022-11-14T07:01:27.189Z,76.01
2022-11-14T07:02:27.346Z,76.01
2022-11-14T07:03:27.552Z,75.91
2022-11-14T07:04:27.466Z,75.91
2022-11-14T07:05:27.587Z,75.91
2022-11-14T07:06:27.622Z,76.01
2022-11-14T07:07:28.933Z,76.01
2022-11-14T07:08:27.803Z,76.15
2022-11-14T07:09:27.821Z,76.15
2022-11-14T07:10:27.959Z,76.25
2022-11-14T07:11:27.985Z,76.35
2022-11-14T07:12:28.054Z,76.35
2022-11-14T07:13:28.151Z,76.46
2022-11-14T07:14:28.220Z,76.56
2022-11-14T07:15:28.304Z,76.67
2022-11-14T07:16:28.379Z,76.77
2022-11-14T07:17:31.220Z,76.77
2022-11-14T07:18:28.888Z,76.87
2022-11-14T07:19:28.603Z,76.98
2022-11-14T07:20:28.725Z,77.08
2022-11-14T07:21:28.803Z,77.08
2022-11-14T07:22:28.862Z,77.18
2022-11-14T07:23:28.970Z,77.28
2022-11-14T07:24:29.039Z,77.28
2022-11-14T07:25:29.113Z,77.25
2022-11-14T07:26:29.186Z,77.35
2022-11-14T07:27:29.243Z,77.35
2022-11-14T07:28:29.927Z,77.45
2022-11-14T07:29:29.517Z,77.56
2022-11-14T07:30:29.557Z,77.56
2022-11-14T07:31:29.637Z,77.66
2022-11-14T07:32:29.711Z,77.66
2022-11-14T07:33:29.828Z,77.66
2022-11-14T07:34:29.842Z,77.66
2022-11-14T07:35:29.955Z,77.66
2022-11-14T07:36:30.022Z,77.66
2022-11-14T07:37:30.081Z,77.62
2022-11-14T07:38:30.540Z,77.73
2022-11-14T07:39:30.247Z,77.73
2022-11-14T07:40:30.343Z,77.83
2022-11-14T07:41:30.415Z,77.94
2022-11-14T07:42:30.498Z,78.04
2022-11-14T07:43:30.605Z,78.24
2022-11-14T07:44:30.648Z,78.45
2022-11-14T07:45:30.737Z,78.55
2022-11-14T07:46:30.790Z,78.66
2022-11-14T07:47:30.863Z,78.76
2022-11-14T07:48:31.298Z,78.86
2022-11-14T07:49:31.045Z,78.86
2022-11-14T07:50:31.087Z,78.86
2022-11-14T07:51:31.177Z,78.86
2022-11-14T07:52:31.258Z,78.97
2022-11-14T07:53:31.351Z,78.86
2022-11-14T07:54:31.433Z,78.86
2022-11-14T07:55:31.521Z,78.86
2022-11-14T07:56:31.617Z,78.86
2022-11-14T07:57:35.545Z,78.86
2022-11-14T07:58:32.148Z,78.86
2022-11-14T07:59:31.891Z,78.76
2022-11-14T08:00:32.028Z,78.76
2022-11-14T08:01:32.103Z,78.76
2022-11-14T08:02:32.134Z,78.62
2022-11-14T08:03:32.189Z,78.72
2022-11-14T08:04:32.316Z,78.72
2022-11-14T08:05:32.378Z,78.72
2022-11-14T08:06:32.450Z,78.72
2022-11-14T08:07:32.563Z,78.72
2022-11-14T08:08:33.005Z,78.72
2022-11-14T08:09:32.733Z,78.62
2022-11-14T08:10:33.932Z,78.62
2022-11-14T08:11:35.371Z,78.62
2022-11-14T08:12:32.945Z,78.72
2022-11-14T08:13:33.752Z,78.72
2022-11-14T08:14:33.117Z,78.83
2022-11-14T08:15:33.193Z,78.93
2022-11-14T08:16:33.260Z,78.93
2022-11-14T08:17:33.329Z,79.03
2022-11-14T08:18:33.447Z,79.03
2022-11-14T08:19:33.489Z,79.03
2022-11-14T08:20:33.577Z,79.03
2022-11-14T08:21:33.655Z,79.03
2022-11-14T08:22:33.718Z,79.03
2022-11-14T08:23:33.791Z,79.03
2022-11-14T08:24:33.882Z,79.14
2022-11-14T08:25:33.974Z,79.14
2022-11-14T08:26:34.608Z,79.24
2022-11-14T08:27:34.134Z,79.20
2022-11-14T08:28:34.503Z,79.30
2022-11-14T08:29:34.296Z,79.30
2022-11-14T08:30:34.373Z,79.51
2022-11-14T08:31:34.457Z,79.51
2022-11-14T08:32:34.536Z,79.61
2022-11-14T08:33:34.612Z,79.61
2022-11-14T08:34:34.719Z,79.51
2022-11-14T08:35:34.743Z,79.61
2022-11-14T08:36:34.837Z,79.72
2022-11-14T08:37:34.908Z,79.72
2022-11-14T08:38:34.983Z,79.82
2022-11-14T08:39:35.065Z,79.82
2022-11-14T08:40:35.142Z,79.93
2022-11-14T08:41:35.274Z,80.13
2022-11-14T08:42:35.285Z,80.23
2022-11-14T08:43:35.355Z,80.30
2022-11-14T08:44:35.465Z,80.40
2022-11-14T08:45:35.498Z,80.40
2022-11-14T08:46:35.571Z,80.51
2022-11-14T08:47:35.638Z,80.61
2022-11-14T08:48:35.707Z,80.71
2022-11-14T08:49:35.789Z,80.81
2022-11-14T08:50:35.856Z,80.77
2022-11-14T08:51:36.602Z,80.67
2022-11-14T08:52:35.985Z,80.67
2022-11-14T08:53:36.065Z,80.67
2022-11-14T08:54:36.139Z,80.67
2022-11-14T08:55:36.211Z,80.57
2022-11-14T08:56:36.281Z,80.88
2022-11-14T08:57:36.349Z,81.09
2022-11-14T08:58:36.556Z,81.15
2022-11-14T08:59:36.524Z,81.15
2022-11-14T09:00:36.593Z,81.05
2022-11-14T09:01:36.676Z,81.05
2022-11-14T09:02:36.797Z,81.21
2022-11-14T09:03:36.970Z,81.21
2022-11-14T09:04:37.026Z,81.11
2022-11-14T09:05:36.988Z,81.01
2022-11-14T09:06:37.047Z,81.01
2022-11-14T09:07:37.119Z,80.87
2022-11-14T09:08:37.178Z,80.77
2022-11-14T09:09:37.353Z,80.66
2022-11-14T09:10:37.339Z,80.66
2022-11-14T09:11:37.400Z,80.66
2022-11-14T09:12:37.521Z,80.66
2022-11-14T09:13:37.553Z,80.77
2022-11-14T09:14:37.631Z,80.77
2022-11-14T09:15:37.700Z,80.63
2022-11-14T09:16:37.825Z,80.63
2022-11-14T09:17:37.855Z,80.52
2022-11-14T09:18:37.948Z,80.52
2022-11-14T09:19:38.040Z,80.42
2022-11-14T09:20:40.298Z,80.32
2022-11-14T09:21:38.201Z,80.18
2022-11-14T09:22:38.312Z,80.07
2022-11-14T09:23:38.343Z,80.07
2022-11-14T09:24:38.507Z,79.97
2022-11-14T09:25:38.491Z,79.97
2022-11-14T09:26:38.568Z,79.87
2022-11-14T09:27:38.643Z,79.87
2022-11-14T09:28:38.715Z,79.87
2022-11-14T09:29:38.802Z,79.87
2022-11-14T09:30:38.883Z,79.87
2022-11-14T09:31:38.959Z,79.73
2022-11-14T09:32:39.062Z,79.63
2022-11-14T09:33:39.088Z,79.63
2022-11-14T09:34:39.196Z,79.73
2022-11-14T09:35:39.272Z,79.73
2022-11-14T09:36:39.336Z,79.52
2022-11-14T09:37:39.428Z,79.22
2022-11-14T09:38:39.531Z,79.11
2022-11-14T09:39:39.625Z,79.01
2022-11-14T09:40:39.694Z,78.94
2022-11-14T09:41:39.765Z,78.94
2022-11-14T09:42:39.852Z,78.94
2022-11-14T09:43:39.930Z,78.94
2022-11-14T09:44:40.021Z,79.25
2022-11-14T09:45:40.081Z,79.36
2022-11-14T09:46:40.183Z,79.46
2022-11-14T09:47:40.222Z,79.36
2022-11-14T09:48:40.310Z,79.32
2022-11-14T09:49:40.383Z,79.32
2022-11-14T09:50:40.461Z,79.32
2022-11-14T09:51:40.516Z,79.42
2022-11-14T09:52:40.634Z,79.42
2022-11-14T09:53:40.722Z,79.32
2022-11-14T09:54:40.833Z,79.32
2022-11-14T09:55:40.907Z,79.32
2022-11-14T09:56:40.975Z,79.32
2022-11-14T09:57:41.060Z,79.22
2022-11-14T09:58:41.133Z,79.11
2022-11-14T09:59:41.219Z,79.08
2022-11-14T10:00:41.308Z,79.11
2022-11-14T10:01:41.428Z,79.01
2022-11-14T10:02:41.454Z,78.97
2022-11-14T10:03:41.535Z,78.97
2022-11-14T10:04:41.644Z,78.91
2022-11-14T10:05:41.704Z,78.91
2022-11-14T10:06:41.795Z,78.87
2022-11-14T10:07:41.909Z,78.97
2022-11-14T10:08:41.948Z,78.87
2022-11-14T10:09:42.055Z,78.97
2022-11-14T10:10:42.104Z,79.28
2022-11-14T10:11:42.174Z,79.49
2022-11-14T10:12:42.265Z,79.49
2022-11-14T10:13:42.357Z,79.55
2022-11-14T10:14:42.451Z,79.55
2022-11-14T10:15:42.496Z,79.66
2022-11-14T10:16:42.580Z,79.82
2022-11-14T10:17:42.659Z,79.62
2022-11-14T10:18:42.759Z,79.27
2022-11-14T10:19:43.072Z,78.66
2022-11-14T10:20:42.885Z,77.29
2022-11-14T10:21:42.975Z,76.98
2022-11-14T10:22:43.064Z,76.95
2022-11-14T10:23:43.226Z,76.95
2022-11-14T10:24:43.242Z,76.84
2022-11-14T10:25:44.379Z,75.72
2022-11-14T10:26:43.419Z,75.01
2022-11-14T10:27:43.444Z,74.26
2022-11-14T10:28:43.559Z,74.46
2022-11-14T10:29:43.626Z,74.46
2022-11-14T10:30:43.709Z,74.22
2022-11-14T10:31:43.802Z,74.32
2022-11-14T10:32:43.894Z,74.43
2022-11-14T10:33:43.978Z,74.32
2022-11-14T10:34:44.109Z,73.88
2022-11-14T10:35:44.183Z,73.68
2022-11-14T10:36:44.226Z,73.36
2022-11-14T10:37:44.297Z,73.27
2022-11-14T10:38:44.389Z,73.47
2022-11-14T10:39:44.455Z,73.36
2022-11-14T10:40:44.542Z,73.47
2022-11-14T10:41:58.057Z,73.77
2022-11-14T10:42:44.730Z,73.98
2022-11-14T10:43:44.809Z,72.55
2022-11-14T10:44:44.914Z,71.53
2022-11-14T10:45:44.948Z,71.39
2022-11-14T10:46:45.011Z,69.56
2022-11-14T10:47:45.114Z,68.12
2022-11-14T10:48:45.197Z,68.50
2022-11-14T10:49:45.391Z,68.19
2022-11-14T10:50:45.361Z,67.68
2022-11-14T10:51:45.522Z,66.77
2022-11-14T10:52:45.554Z,66.77
2022-11-14T10:53:45.618Z,65.95
2022-11-14T10:54:45.740Z,65.44
2022-11-14T10:56:02.968Z,65.13
2022-11-14T10:56:45.818Z,64.72
2022-11-14T10:57:45.901Z,64.72
2022-11-14T10:58:49.034Z,64.52
2022-11-14T10:59:46.119Z,64.62
2022-11-14T11:00:46.266Z,64.83
2022-11-14T11:01:46.237Z,65.03
2022-11-14T11:02:46.309Z,65.23
2022-11-14T11:03:46.469Z,65.51
2022-11-14T11:04:46.481Z,65.20
2022-11-14T11:05:46.541Z,65.20
2022-11-14T11:06:46.742Z,65.51
2022-11-14T11:07:46.703Z,65.81
2022-11-14T11:08:47.341Z,65.61
2022-11-14T11:09:47.023Z,64.79
2022-11-14T11:10:47.000Z,64.59
2022-11-14T11:11:47.010Z,65.00
2022-11-14T11:12:47.127Z,65.51
2022-11-14T11:13:47.154Z,65.81
2022-11-14T11:14:47.253Z,66.02
2022-11-14T11:15:47.284Z,66.22
2022-11-14T11:16:47.353Z,66.33
2022-11-14T11:17:47.441Z,66.12
2022-11-14T11:18:50.741Z,66.33
2022-11-14T11:19:47.654Z,66.42
2022-11-14T11:20:47.733Z,66.63
2022-11-14T11:21:47.825Z,66.53
2022-11-14T11:22:47.883Z,66.42
2022-11-14T11:23:47.961Z,66.15
2022-11-14T11:24:48.074Z,66.36
2022-11-14T11:25:48.117Z,66.25
2022-11-14T11:26:48.193Z,66.25
2022-11-14T11:27:48.282Z,66.36
2022-11-14T11:28:48.361Z,66.46
2022-11-14T11:29:48.483Z,66.66
2022-11-14T11:30:53.290Z,66.86
2022-11-14T11:31:48.624Z,67.07
2022-11-14T11:32:48.694Z,67.18
2022-11-14T11:33:48.779Z,67.35
2022-11-14T11:34:48.879Z,67.35
2022-11-14T11:35:48.956Z,67.35
2022-11-14T11:36:49.053Z,67.45
2022-11-14T11:37:49.128Z,67.48
2022-11-14T11:38:49.237Z,67.38
2022-11-14T11:39:49.325Z,67.48
2022-11-14T11:40:49.396Z,67.68
2022-11-14T11:43:55.545Z,68.50
2022-11-14T11:44:49.703Z,68.40
2022-11-14T11:45:49.805Z,68.50
2022-11-14T11:46:49.873Z,68.40
2022-11-14T11:47:49.948Z,68.09
2022-11-14T11:48:50.030Z,68.30
2022-11-14T11:49:53.805Z,68.60
2022-11-14T11:50:50.197Z,68.70
2022-11-14T11:51:50.300Z,68.60
2022-11-14T11:52:50.334Z,68.50
2022-11-14T11:53:50.455Z,68.50
2022-11-14T11:54:50.511Z,68.30
2022-11-14T11:55:50.590Z,68.50
2022-11-14T11:56:50.676Z,68.60
2022-11-14T11:57:50.755Z,68.60
2022-11-14T11:58:50.839Z,68.70
2022-11-14T11:59:50.950Z,68.60
2022-11-14T12:00:50.982Z,68.70
2022-11-14T12:01:51.173Z,68.70
2022-11-14T12:02:51.259Z,68.80
2022-11-14T12:03:51.345Z,68.74
2022-11-14T12:04:51.319Z,68.80
2022-11-14T12:05:51.379Z,67.07
2022-11-14T12:06:51.506Z,67.27
2022-11-14T12:07:51.547Z,67.68
2022-11-14T12:08:51.654Z,66.77
2022-11-14T12:10:51.781Z,66.66
2022-11-14T12:11:51.881Z,66.12
2022-11-14T12:12:51.991Z,65.31
2022-11-14T12:13:52.032Z,65.31
2022-11-14T12:14:52.150Z,65.58
2022-11-14T12:15:52.183Z,65.89
2022-11-14T12:16:52.295Z,66.09
2022-11-14T12:17:52.348Z,66.19
2022-11-14T12:18:52.453Z,66.30
2022-11-14T12:19:52.549Z,66.60
2022-11-14T12:20:52.604Z,66.39
2022-11-14T12:21:58.439Z,66.30
2022-11-14T12:22:52.766Z,65.99
2022-11-14T12:23:52.842Z,66.09
2022-11-14T12:24:52.958Z,66.09
2022-11-14T12:25:53.005Z,66.09
2022-11-14T12:26:53.084Z,66.09
2022-11-14T12:27:53.173Z,65.99
2022-11-14T12:28:53.242Z,65.89
2022-11-14T12:29:53.355Z,65.89
2022-11-14T12:30:53.393Z,65.99
2022-11-14T12:31:53.465Z,66.09
2022-11-14T12:32:53.578Z,66.09
2022-11-14T12:33:53.612Z,66.30
2022-11-14T12:34:53.793Z,66.19
2022-11-14T12:35:53.792Z,66.30
2022-11-14T12:36:53.905Z,66.19
2022-11-14T12:37:55.858Z,66.09
2022-11-14T12:38:54.011Z,66.19
2022-11-14T12:39:54.112Z,66.30
2022-11-14T12:40:54.187Z,66.39
2022-11-14T12:41:54.262Z,66.50
2022-11-14T12:42:54.334Z,66.39
2022-11-14T12:43:54.462Z,66.19
2022-11-14T12:44:54.501Z,65.99
2022-11-14T12:45:54.569Z,66.09
2022-11-14T12:46:54.656Z,65.89
2022-11-14T12:47:54.721Z,65.68
2022-11-14T12:48:54.826Z,64.97
2022-11-14T12:49:54.935Z,64.84
2022-11-14T12:50:54.992Z,64.84
2022-11-14T12:51:55.078Z,65.04
2022-11-14T12:52:55.172Z,65.14
2022-11-14T12:53:55.251Z,65.25
2022-11-14T12:54:55.369Z,65.25
2022-11-14T12:55:55.418Z,65.25
2022-11-14T12:56:55.561Z,65.25